Time;durP1;ratioP1;P1;durP2;ratioP2;P2;SDS_P1;SDS_P2;PMS_P1;PMS_P2;Temp;Humidity;BMP_temperature;BMP_pressure;BME280_temperature;BME280_humidity;BME280_pressure;Samples;Min_cycle;Max_cycle;Signal;HPM_P1;HPM_P2
2022/04/13 00:01:28;;;;;;;11.93;7.32;;;14.40;99.90;;;;;;5091443;28;20052;-60
2022/04/13 00:03:54;;;;;;;10.93;7.72;;;14.30;99.90;;;;;;5094859;28;20044;-62
2022/04/13 00:06:19;;;;;;;12.20;7.30;;;14.30;99.90;;;;;;5108639;28;20479;-62
2022/04/13 00:08:45;;;;;;;11.68;7.28;;;14.30;99.90;;;;;;5076174;28;20062;-62
2022/04/13 00:11:13;;;;;;;13.07;7.88;;;14.20;99.90;;;;;;5093894;28;20052;-62
2022/04/13 00:28:23;;;;;;;13.43;7.38;;;14.10;99.90;;;;;;5305198;22;20456;-62
2022/04/13 00:30:49;;;;;;;14.15;8.27;;;14.10;99.90;;;;;;5071391;28;20052;-53
2022/04/13 00:33:15;;;;;;;9.57;7.43;;;14.00;99.90;;;;;;5074852;28;20413;-54
2022/04/13 00:35:41;;;;;;;11.30;7.18;;;14.00;99.90;;;;;;5073382;28;20044;-50
2022/04/13 00:38:06;;;;;;;11.35;7.88;;;14.00;99.90;;;;;;5074839;28;20071;-55
2022/04/13 00:40:32;;;;;;;8.93;7.18;;;13.90;99.90;;;;;;5073308;28;20091;-57
2022/04/13 00:42:58;;;;;;;8.75;6.82;;;13.90;99.90;;;;;;5074860;28;20559;-54
2022/04/13 00:45:24;;;;;;;9.88;6.60;;;13.90;99.90;;;;;;5073312;28;20043;-54
2022/04/13 00:47:49;;;;;;;10.63;7.88;;;13.90;99.90;;;;;;5073523;28;20041;-54
2022/04/13 00:50:15;;;;;;;10.18;7.72;;;13.90;99.90;;;;;;5074421;28;20045;-54
2022/04/13 00:52:44;;;;;;;10.70;7.93;;;13.80;99.90;;;;;;5074264;28;20446;-57
2022/04/13 00:55:12;;;;;;;13.77;7.57;;;13.80;99.90;;;;;;5074630;28;20048;-54
2022/04/13 00:57:41;;;;;;;10.32;7.32;;;13.80;99.90;;;;;;5073250;28;20047;-54
2022/04/13 01:00:09;;;;;;;10.48;6.63;;;13.70;99.90;;;;;;5056782;28;20056;-55
2022/04/13 01:02:42;;;;;;;10.82;6.88;;;13.80;99.90;;;;;;5073024;28;20398;-53
2022/04/13 01:05:08;;;;;;;8.93;6.28;;;13.80;99.90;;;;;;5073247;28;20080;-53
2022/04/13 01:07:35;;;;;;;9.98;6.50;;;13.80;99.90;;;;;;5074016;28;20136;-53
2022/04/13 01:10:07;;;;;;;9.63;6.70;;;13.80;99.90;;;;;;5074313;28;20052;-52
2022/04/13 01:12:34;;;;;;;9.65;6.97;;;13.80;99.90;;;;;;5074105;28;20131;-54
2022/04/13 01:15:00;;;;;;;9.88;6.70;;;13.90;99.90;;;;;;5074508;28;20079;-54
2022/04/13 01:17:27;;;;;;;13.48;7.18;;;13.90;99.90;;;;;;5073946;28;20045;-53
2022/04/13 01:19:54;;;;;;;10.85;6.85;;;13.90;99.90;;;;;;5056452;28;20048;-50
2022/04/13 01:22:21;;;;;;;11.20;7.30;;;13.90;99.90;;;;;;5056845;28;20057;-55
2022/04/13 01:24:47;;;;;;;12.55;6.55;;;13.90;99.90;;;;;;5073920;28;20113;-54
2022/04/13 01:27:16;;;;;;;11.52;7.38;;;13.90;99.90;;;;;;5073060;28;20129;-55
2022/04/13 01:29:43;;;;;;;11.35;6.68;;;13.90;99.90;;;;;;5073963;28;20079;-54
2022/04/13 01:32:12;;;;;;;10.10;7.07;;;14.00;99.90;;;;;;5072793;28;20056;-50
2022/04/13 01:34:49;;;;;;;11.45;7.53;;;13.90;99.90;;;;;;5073549;28;20045;-54
2022/04/13 01:37:15;;;;;;;11.23;7.05;;;13.90;99.90;;;;;;5073825;28;20084;-51
2022/04/13 01:39:41;;;;;;;10.77;7.38;;;13.90;99.90;;;;;;5072647;28;20135;-53
2022/04/13 01:42:07;;;;;;;10.90;7.90;;;13.90;99.90;;;;;;5073757;28;20454;-53
2022/04/13 01:44:33;;;;;;;11.00;7.32;;;13.90;99.90;;;;;;5073281;28;20056;-54
2022/04/13 01:46:58;;;;;;;11.38;7.80;;;13.90;99.90;;;;;;5072766;28;20048;-53
2022/04/13 01:49:24;;;;;;;11.63;6.97;;;13.90;99.90;;;;;;5072123;28;20056;-51
2022/04/13 01:51:50;;;;;;;10.93;7.63;;;13.90;99.90;;;;;;5072317;28;20058;-50
2022/04/13 01:54:16;;;;;;;11.88;7.38;;;13.90;99.90;;;;;;5073698;28;20049;-51
2022/04/13 01:56:42;;;;;;;12.82;7.65;;;13.90;99.90;;;;;;5072052;28;20520;-52
2022/04/13 01:59:08;;;;;;;10.98;7.70;;;13.90;99.90;;;;;;5072357;28;20060;-50
2022/04/13 02:01:35;;;;;;;11.82;7.70;;;13.90;99.90;;;;;;5071951;28;20052;-52
2022/04/13 02:04:01;;;;;;;10.15;7.72;;;13.90;99.90;;;;;;5073353;28;20127;-50
2022/04/13 02:06:27;;;;;;;11.98;8.07;;;13.90;99.90;;;;;;5073433;28;20055;-52
2022/04/13 02:08:53;;;;;;;11.43;7.90;;;13.80;99.90;;;;;;5072025;28;20048;-52
2022/04/13 02:11:18;;;;;;;11.55;8.30;;;13.80;99.90;;;;;;5073161;28;20045;-50
2022/04/13 02:13:44;;;;;;;14.20;8.05;;;13.90;99.90;;;;;;5071716;28;20040;-51
2022/04/13 02:16:10;;;;;;;12.43;8.32;;;13.80;99.90;;;;;;5055400;28;20047;-50
2022/04/13 02:18:36;;;;;;;13.38;8.38;;;13.70;99.90;;;;;;5072388;28;20185;-50
2022/04/13 02:21:01;;;;;;;14.00;9.25;;;13.70;99.90;;;;;;5073113;28;20084;-50
2022/04/13 02:23:27;;;;;;;12.75;8.52;;;13.70;99.90;;;;;;5071623;28;20080;-52
2022/04/13 02:25:53;;;;;;;14.57;8.95;;;13.70;99.90;;;;;;5072629;28;20056;-53
2022/04/13 02:28:18;;;;;;;15.23;8.82;;;13.70;99.90;;;;;;5072490;28;20058;-52
2022/04/13 02:30:44;;;;;;;13.55;8.80;;;13.70;99.90;;;;;;5072380;28;20095;-51
2022/04/13 02:33:10;;;;;;;12.95;9.13;;;13.70;99.90;;;;;;5054866;28;20140;-51
2022/04/13 02:35:35;;;;;;;16.92;9.23;;;13.70;99.90;;;;;;5070972;28;20044;-51
2022/04/13 02:38:01;;;;;;;10.63;8.82;;;13.70;99.90;;;;;;5071374;28;20394;-53
2022/04/13 02:40:27;;;;;;;16.25;10.02;;;13.70;99.90;;;;;;5071597;28;20091;-50
2022/04/13 02:42:52;;;;;;;13.80;9.32;;;13.70;99.90;;;;;;5070967;28;20045;-51
2022/04/13 02:45:18;;;;;;;15.43;9.55;;;13.60;99.90;;;;;;5071264;28;20037;-51
2022/04/13 02:47:44;;;;;;;14.05;10.00;;;13.60;99.90;;;;;;5071012;28;20044;-54
2022/04/13 02:50:10;;;;;;;14.27;9.38;;;13.60;99.90;;;;;;5070734;28;20040;-56
2022/04/13 02:52:36;;;;;;;19.40;10.57;;;13.60;99.90;;;;;;5071853;28;20446;-54
2022/04/13 02:55:02;;;;;;;21.30;11.20;;;13.60;99.90;;;;;;5072239;28;20040;-52
2022/04/13 02:57:27;;;;;;;16.63;10.40;;;13.50;99.90;;;;;;5054547;28;20097;-55
2022/04/13 02:59:53;;;;;;;16.33;11.20;;;13.50;99.90;;;;;;5071985;28;20052;-55
2022/04/13 03:02:19;;;;;;;16.95;10.60;;;13.50;99.90;;;;;;5072569;28;20429;-53
2022/04/13 03:04:49;;;;;;;19.05;10.77;;;13.60;99.90;;;;;;5071910;28;20202;-52
2022/04/13 03:07:17;;;;;;;17.92;10.55;;;13.50;99.90;;;;;;5071990;28;20051;-53
2022/04/13 03:09:44;;;;;;;21.13;11.18;;;13.50;99.90;;;;;;5070693;28;20071;-54
2022/04/13 03:12:11;;;;;;;20.20;11.40;;;13.50;99.90;;;;;;5071943;28;20090;-54
2022/04/13 03:14:39;;;;;;;16.25;10.15;;;13.50;99.90;;;;;;5071739;28;20098;-50
2022/04/13 03:17:05;;;;;;;17.17;10.82;;;13.50;99.90;;;;;;5071542;28;20490;-51
2022/04/13 03:19:32;;;;;;;16.50;11.07;;;13.50;99.90;;;;;;5070616;28;20048;-55
2022/04/13 03:21:57;;;;;;;14.43;10.57;;;13.50;99.90;;;;;;5071610;28;20045;-54
2022/04/13 03:24:26;;;;;;;18.30;11.02;;;13.40;99.90;;;;;;5071861;28;20036;-56
2022/04/13 03:26:52;;;;;;;18.50;11.68;;;13.40;99.90;;;;;;5071355;28;20094;-54
2022/04/13 03:29:18;;;;;;;17.90;11.10;;;13.40;99.90;;;;;;5053706;28;20056;-51
2022/04/13 03:31:44;;;;;;;16.80;11.18;;;13.40;99.90;;;;;;5071269;28;20079;-51
2022/04/13 03:34:10;;;;;;;15.45;11.27;;;13.40;99.90;;;;;;5070419;28;20490;-56
2022/04/13 03:36:39;;;;;;;16.33;11.35;;;13.30;99.90;;;;;;5071604;28;20084;-55
2022/04/13 03:39:06;;;;;;;17.92;10.38;;;13.30;99.90;;;;;;5071248;28;20045;-57
2022/04/13 03:41:36;;;;;;;18.55;11.18;;;13.30;99.90;;;;;;5071453;28;20055;-53
2022/04/13 03:44:02;;;;;;;16.38;10.57;;;13.30;99.90;;;;;;5071243;28;20316;-52
2022/04/13 03:46:28;;;;;;;17.92;11.43;;;13.30;99.90;;;;;;5070571;28;20056;-51
2022/04/13 03:48:53;;;;;;;21.42;11.23;;;13.30;99.90;;;;;;5071072;28;20127;-52
2022/04/13 03:51:19;;;;;;;17.42;11.85;;;13.20;99.90;;;;;;5053565;28;20048;-54
2022/04/13 03:53:45;;;;;;;19.40;11.52;;;13.20;99.90;;;;;;5053226;28;20116;-51
2022/04/13 03:56:11;;;;;;;21.85;11.18;;;13.20;99.90;;;;;;5071616;28;20049;-53
2022/04/13 03:58:40;;;;;;;16.77;11.63;;;13.20;99.90;;;;;;5070133;28;20048;-56
2022/04/13 04:01:06;;;;;;;17.90;11.60;;;13.20;99.90;;;;;;5053600;28;20048;-54
2022/04/13 04:03:33;;;;;;;19.75;12.52;;;13.10;99.90;;;;;;5069817;28;20055;-57
2022/04/13 04:05:59;;;;;;;18.88;12.35;;;13.10;99.90;;;;;;5071080;28;20040;-52
2022/04/13 04:08:26;;;;;;;18.75;12.02;;;13.10;99.90;;;;;;5071293;28;20051;-51
2022/04/13 04:10:52;;;;;;;19.85;12.15;;;13.10;99.90;;;;;;5070679;28;20551;-54
2022/04/13 04:13:18;;;;;;;19.55;12.57;;;13.00;99.90;;;;;;5070338;28;20045;-53
2022/04/13 04:15:43;;;;;;;21.27;12.75;;;13.00;99.90;;;;;;5071128;28;20122;-55
2022/04/13 04:18:09;;;;;;;19.10;13.10;;;13.00;99.90;;;;;;5069608;28;20139;-54
2022/04/13 04:20:35;;;;;;;21.58;12.60;;;13.00;99.90;;;;;;5071634;28;20044;-57
2022/04/13 04:23:01;;;;;;;21.88;14.50;;;13.00;99.90;;;;;;5069353;28;20099;-54
2022/04/13 04:25:26;;;;;;;19.27;13.68;;;12.90;99.90;;;;;;5069989;28;20054;-54
2022/04/13 04:27:52;;;;;;;20.63;13.85;;;12.90;99.90;;;;;;5068939;28;20515;-54
2022/04/13 04:30:18;;;;;;;16.83;13.07;;;12.90;99.90;;;;;;5069946;28;20055;-57
2022/04/13 04:32:43;;;;;;;23.83;14.25;;;12.90;99.90;;;;;;5070630;28;20490;-57
2022/04/13 04:35:09;;;;;;;21.42;14.40;;;12.90;99.90;;;;;;5070561;28;20044;-55
2022/04/13 04:37:35;;;;;;;22.85;14.40;;;12.90;99.90;;;;;;5053418;28;20049;-53
2022/04/13 04:40:01;;;;;;;21.00;13.90;;;12.90;99.90;;;;;;5069490;28;20418;-60
2022/04/13 04:42:27;;;;;;;19.88;14.23;;;12.90;99.90;;;;;;5069877;28;20467;-53
2022/04/13 04:44:57;;;;;;;19.02;13.70;;;12.80;99.90;;;;;;5070546;28;20037;-54
2022/04/13 04:47:23;;;;;;;22.02;14.35;;;12.80;99.90;;;;;;5070615;28;20402;-55
2022/04/13 04:49:49;;;;;;;19.77;13.25;;;12.80;99.90;;;;;;5052986;28;20543;-55
2022/04/13 04:52:15;;;;;;;18.65;13.68;;;12.80;99.90;;;;;;5070945;28;20049;-53
2022/04/13 04:54:41;;;;;;;16.80;12.77;;;12.80;99.90;;;;;;5069707;28;20063;-54
2022/04/13 04:57:08;;;;;;;21.58;13.68;;;12.80;99.90;;;;;;5069052;28;20089;-55
2022/04/13 04:59:34;;;;;;;18.60;13.40;;;12.80;99.90;;;;;;5070829;28;20048;-53
2022/04/13 05:02:00;;;;;;;18.50;13.98;;;12.80;99.90;;;;;;5069538;28;20147;-55
2022/04/13 05:04:26;;;;;;;19.63;13.13;;;12.80;99.90;;;;;;5070844;28;20537;-55
2022/04/13 05:06:52;;;;;;;19.23;13.13;;;12.70;99.90;;;;;;5069964;28;20040;-53
2022/04/13 05:09:18;;;;;;;24.08;13.05;;;12.80;99.90;;;;;;5070545;28;20374;-55
2022/04/13 05:11:45;;;;;;;20.42;12.60;;;12.80;99.90;;;;;;5070819;28;20052;-55
2022/04/13 05:14:11;;;;;;;19.60;13.30;;;12.80;99.90;;;;;;5070384;28;20109;-51
2022/04/13 05:16:37;;;;;;;24.58;13.90;;;12.80;99.90;;;;;;5073195;28;20454;-54
2022/04/13 05:19:02;;;;;;;20.48;12.65;;;12.90;99.90;;;;;;5072631;28;20056;-53
2022/04/13 05:21:28;;;;;;;17.98;12.45;;;12.90;99.90;;;;;;5073459;28;20052;-54
2022/04/13 05:23:54;;;;;;;15.82;12.27;;;12.90;99.90;;;;;;5073431;28;20059;-54
2022/04/13 05:26:19;;;;;;;21.13;13.35;;;13.00;99.90;;;;;;5073251;28;20102;-49
2022/04/13 05:28:47;;;;;;;19.17;13.13;;;13.00;99.90;;;;;;5073909;28;20050;-51
2022/04/13 05:31:13;;;;;;;20.83;12.07;;;13.00;99.90;;;;;;5073880;28;20135;-53
2022/04/13 05:33:39;;;;;;;23.58;12.77;;;13.10;99.90;;;;;;5072930;28;20135;-50
2022/04/13 05:36:05;;;;;;;21.25;13.25;;;13.10;99.90;;;;;;5072499;28;20175;-54
2022/04/13 05:38:31;;;;;;;18.95;12.75;;;13.10;99.90;;;;;;5073009;28;20048;-49
2022/04/13 05:40:57;;;;;;;21.92;13.30;;;13.10;99.90;;;;;;5072563;28;20051;-59
2022/04/13 05:43:22;;;;;;;20.63;13.30;;;13.10;99.90;;;;;;5073987;28;20052;-50
2022/04/13 05:45:48;;;;;;;21.52;12.55;;;13.10;99.90;;;;;;5039773;28;20048;-53
2022/04/13 05:48:15;;;;;;;23.48;13.90;;;13.10;99.90;;;;;;5072553;28;20044;-56
2022/04/13 05:50:40;;;;;;;18.75;13.32;;;13.10;99.90;;;;;;5072600;28;20040;-53
2022/04/13 05:53:06;;;;;;;23.50;13.70;;;13.10;99.90;;;;;;5073605;28;20051;-51
2022/04/13 05:55:32;;;;;;;25.77;13.52;;;13.10;99.90;;;;;;5073648;28;20489;-50
2022/04/13 05:57:58;;;;;;;23.38;13.60;;;13.20;99.90;;;;;;5073775;28;20094;-56
2022/04/13 06:00:24;;;;;;;22.25;14.32;;;13.20;99.90;;;;;;5072729;28;20052;-54
2022/04/13 06:02:49;;;;;;;22.15;13.30;;;13.20;99.90;;;;;;5073620;28;20047;-53
2022/04/13 06:05:15;;;;;;;22.10;12.68;;;13.30;99.90;;;;;;5071981;28;20048;-56
2022/04/13 06:07:42;;;;;;;22.65;13.65;;;13.40;99.90;;;;;;5073573;28;20051;-56
2022/04/13 06:10:08;;;;;;;20.05;13.88;;;13.60;99.90;;;;;;5072906;28;20524;-55
2022/04/13 06:12:34;;;;;;;24.45;13.50;;;13.80;99.90;;;;;;5073356;28;20044;-54
2022/04/13 06:15:06;;;;;;;18.05;13.50;;;14.20;99.90;;;;;;5073651;28;20102;-55
2022/04/13 06:17:33;;;;;;;23.38;13.45;;;14.50;99.90;;;;;;5055833;28;20156;-54
2022/04/13 06:19:58;;;;;;;23.67;12.32;;;14.70;99.90;;;;;;5055833;28;20048;-55
2022/04/13 06:22:24;;;;;;;21.23;12.48;;;14.70;99.90;;;;;;5055366;28;20185;-54
2022/04/13 06:24:51;;;;;;;21.00;12.88;;;14.70;99.90;;;;;;5071886;28;20435;-55
2022/04/13 06:27:20;;;;;;;20.02;12.95;;;14.60;99.90;;;;;;5054918;28;20181;-57
2022/04/13 06:29:47;;;;;;;25.20;13.13;;;14.40;99.90;;;;;;5073046;28;20517;-55
2022/04/13 06:32:15;;;;;;;23.50;13.25;;;14.30;99.90;;;;;;5071566;28;20052;-53
2022/04/13 06:34:41;;;;;;;21.52;13.20;;;14.30;99.90;;;;;;5055420;28;20056;-57
2022/04/13 06:37:07;;;;;;;24.05;13.63;;;14.20;99.90;;;;;;5071203;28;20687;-57
2022/04/13 06:39:33;;;;;;;22.80;13.45;;;14.20;99.90;;;;;;5072863;28;20047;-54
2022/04/13 06:41:58;;;;;;;22.33;14.15;;;14.10;99.90;;;;;;5071581;28;20406;-54
2022/04/13 06:44:24;;;;;;;20.40;13.90;;;14.00;99.90;;;;;;5072629;28;20287;-55
2022/04/13 06:46:50;;;;;;;22.85;14.07;;;14.00;99.90;;;;;;5071717;28;20181;-52
2022/04/13 06:49:16;;;;;;;19.17;13.07;;;14.00;99.90;;;;;;5072360;28;20071;-51
2022/04/13 06:51:42;;;;;;;22.25;14.48;;;14.00;99.90;;;;;;5072632;28;20132;-56
2022/04/13 06:54:08;;;;;;;22.27;14.15;;;14.20;99.90;;;;;;5072406;28;20080;-56
2022/04/13 06:56:34;;;;;;;19.23;13.88;;;14.30;99.90;;;;;;5072323;28;20117;-53
2022/04/13 06:58:59;;;;;;;19.95;13.13;;;14.70;99.90;;;;;;5072463;28;20127;-57
2022/04/13 07:01:25;;;;;;;20.77;13.20;;;15.30;99.90;;;;;;5053968;28;20140;-55
2022/04/13 07:03:51;;;;;;;23.33;12.57;;;15.70;99.90;;;;;;5054780;28;20055;-54
2022/04/13 07:06:17;;;;;;;16.95;12.48;;;15.90;99.90;;;;;;5070856;28;20097;-54
2022/04/13 07:08:43;;;;;;;21.40;11.85;;;15.90;99.90;;;;;;5054446;28;20041;-52
2022/04/13 07:11:08;;;;;;;20.80;12.27;;;15.80;99.90;;;;;;5071888;28;20078;-58
2022/04/13 07:13:35;;;;;;;22.30;13.02;;;15.80;99.90;;;;;;5072086;28;20048;-54
2022/04/13 07:16:00;;;;;;;19.30;12.98;;;15.70;99.90;;;;;;5070975;28;20486;-55
2022/04/13 07:18:26;;;;;;;21.02;12.35;;;15.60;99.90;;;;;;5070618;28;20055;-54
2022/04/13 07:20:52;;;;;;;17.08;12.18;;;15.50;99.90;;;;;;5071796;28;20044;-56
2022/04/13 07:23:18;;;;;;;21.27;12.65;;;15.50;99.90;;;;;;5071676;28;20059;-55
2022/04/13 07:25:44;;;;;;;20.15;12.50;;;16.00;99.90;;;;;;5071072;28;20064;-55
2022/04/13 07:28:10;;;;;;;19.17;11.65;;;16.90;99.90;;;;;;5071147;28;20071;-61
2022/04/13 07:30:36;;;;;;;17.98;11.70;;;17.70;99.90;;;;;;5054402;28;20063;-56
2022/04/13 07:33:02;;;;;;;18.33;11.90;;;18.30;99.90;;;;;;5070800;28;20045;-54
2022/04/13 07:35:29;;;;;;;13.35;10.35;;;19.10;99.90;;;;;;5070281;28;20040;-57
2022/04/13 07:37:55;;;;;;;15.52;11.25;;;19.50;99.90;;;;;;5071276;28;20432;-53
2022/04/13 07:40:21;;;;;;;14.30;10.38;;;19.80;99.90;;;;;;5071487;28;20045;-54
2022/04/13 07:42:47;;;;;;;14.70;9.70;;;19.90;99.90;;;;;;5071979;28;20045;-55
2022/04/13 07:45:13;;;;;;;15.30;10.35;;;19.80;99.90;;;;;;5070140;28;20432;-56
2022/04/13 07:47:39;;;;;;;16.77;10.10;;;19.50;99.90;;;;;;5071458;28;20056;-55
2022/04/13 07:50:07;;;;;;;16.42;10.05;;;18.90;99.90;;;;;;5071659;28;20040;-54
2022/04/13 07:52:35;;;;;;;18.05;10.20;;;18.50;99.90;;;;;;5071289;28;20290;-53
2022/04/13 07:55:01;;;;;;;15.13;10.00;;;18.20;99.90;;;;;;5071631;28;20075;-55
2022/04/13 07:57:28;;;;;;;17.33;11.15;;;17.90;99.90;;;;;;5069725;28;20414;-56
2022/04/13 07:59:54;;;;;;;15.82;11.10;;;17.60;99.90;;;;;;5071426;28;20100;-54
2022/04/13 08:02:21;;;;;;;17.45;11.02;;;17.40;99.90;;;;;;5070106;28;20080;-51
2022/04/13 08:04:47;;;;;;;17.42;10.73;;;17.20;99.90;;;;;;5070975;28;20521;-52
2022/04/13 08:07:14;;;;;;;16.85;10.48;;;17.00;99.90;;;;;;5071474;28;20045;-56
2022/04/13 08:09:40;;;;;;;14.48;10.43;;;16.80;99.90;;;;;;5071351;28;20101;-55
2022/04/13 08:12:07;;;;;;;15.73;10.90;;;16.70;99.90;;;;;;5071099;28;20060;-53
2022/04/13 08:14:32;;;;;;;21.25;11.82;;;16.70;99.90;;;;;;5070733;28;20482;-55
2022/04/13 08:16:58;;;;;;;18.95;11.35;;;16.60;99.90;;;;;;5070122;28;20132;-51
2022/04/13 08:19:24;;;;;;;18.20;11.32;;;16.50;99.90;;;;;;5070961;28;20102;-51
2022/04/13 08:21:50;;;;;;;17.90;11.70;;;16.40;99.90;;;;;;5071403;28;20190;-54
2022/04/13 08:24:18;;;;;;;17.98;11.25;;;16.30;99.90;;;;;;5071155;28;20063;-56
2022/04/13 08:26:44;;;;;;;20.60;11.65;;;16.30;99.90;;;;;;5053302;28;20047;-53
2022/04/13 08:29:10;;;;;;;18.48;11.50;;;16.30;99.90;;;;;;5070737;28;20132;-55
2022/04/13 08:31:37;;;;;;;18.35;11.55;;;16.60;99.90;;;;;;5070554;28;20056;-54
2022/04/13 08:34:03;;;;;;;15.07;10.35;;;17.00;99.90;;;;;;5070760;28;20036;-55
2022/04/13 08:36:29;;;;;;;15.30;10.27;;;17.80;99.90;;;;;;5070171;28;20402;-55
2022/04/13 08:38:54;;;;;;;16.38;9.68;;;18.30;99.90;;;;;;5070665;28;20052;-53
2022/04/13 08:41:40;;;;;;;15.43;10.27;;;18.60;99.90;;;;;;5070028;28;20032;-57
2022/04/13 08:44:15;;;;;;;16.73;10.30;;;18.70;99.90;;;;;;5052926;28;20048;-56
2022/04/13 08:46:43;;;;;;;15.43;9.00;;;18.80;99.90;;;;;;5069212;28;20048;-54
2022/04/13 08:49:12;;;;;;;14.63;8.82;;;19.20;99.90;;;;;;5071467;28;20055;-54
2022/04/13 08:51:39;;;;;;;12.90;9.02;;;19.80;99.90;;;;;;5073335;28;20488;-55
2022/04/13 08:54:16;;;;;;;14.07;8.95;;;20.30;99.90;;;;;;5074453;28;20206;-56
2022/04/13 08:56:44;;;;;;;16.60;8.82;;;21.00;99.90;;;;;;5074222;28;20044;-52
2022/04/13 08:59:29;;;;;;;13.95;8.35;;;21.60;99.90;;;;;;5074566;28;20102;-56
2022/04/13 09:02:14;;;;;;;14.77;8.85;;;22.10;99.90;;;;;;5074618;28;20084;-58
2022/04/13 09:04:44;;;;;;;14.68;8.57;;;22.40;99.90;;;;;;5074213;28;20386;-55
2022/04/13 09:07:13;;;;;;;13.82;7.68;;;22.70;99.90;;;;;;5074559;28;20055;-55
2022/04/13 09:09:46;;;;;;;12.90;7.70;;;22.70;99.90;;;;;;5072582;28;20044;-54
2022/04/13 09:12:18;;;;;;;17.17;7.53;;;22.60;99.90;;;;;;5074192;28;20048;-56
2022/04/13 09:14:45;;;;;;;10.48;6.72;;;22.30;99.90;;;;;;5073925;28;20052;-55
2022/04/13 09:17:11;;;;;;;11.85;6.85;;;21.90;99.90;;;;;;5074153;28;20036;-54
2022/04/13 09:19:37;;;;;;;11.00;7.10;;;21.70;99.90;;;;;;5072203;28;20044;-54
2022/04/13 09:22:04;;;;;;;12.82;6.53;;;21.80;99.90;;;;;;5073990;28;20117;-54
2022/04/13 09:24:32;;;;;;;12.70;6.57;;;21.90;99.90;;;;;;5073197;28;20048;-58
2022/04/13 09:26:59;;;;;;;11.25;6.85;;;22.30;99.90;;;;;;5072527;28;20074;-54
2022/04/13 09:29:25;;;;;;;11.50;7.45;;;22.80;99.90;;;;;;5073394;28;20064;-60
2022/04/13 09:31:51;;;;;;;13.57;7.38;;;23.20;99.90;;;;;;5072636;28;20063;-53
2022/04/13 09:34:17;;;;;;;10.35;6.90;;;23.00;99.90;;;;;;5072889;28;20454;-55
2022/04/13 09:36:43;;;;;;;12.98;6.47;;;22.90;99.60;;;;;;5055567;28;20304;-51
2022/04/13 09:39:10;;;;;;;12.45;6.32;;;22.80;99.60;;;;;;5073973;28;20174;-55
2022/04/13 09:41:38;;;;;;;10.63;7.07;;;22.60;99.10;;;;;;5073492;28;20405;-52
2022/04/13 09:44:14;;;;;;;10.18;6.40;;;22.40;99.80;;;;;;5073719;28;20055;-56
2022/04/13 09:46:41;;;;;;;10.82;5.57;;;22.20;99.90;;;;;;5073198;28;20162;-56
2022/04/13 09:49:14;;;;;;;9.15;5.90;;;22.00;99.80;;;;;;5073827;28;20048;-55
2022/04/13 09:51:41;;;;;;;10.02;5.93;;;21.90;99.70;;;;;;5072332;28;20478;-55
2022/04/13 09:54:12;;;;;;;10.10;5.85;;;21.80;99.90;;;;;;5073583;28;20055;-51
2022/04/13 09:56:42;;;;;;;10.38;5.60;;;21.70;99.90;;;;;;5072780;28;20072;-54
2022/04/13 09:59:09;;;;;;;11.38;6.47;;;21.70;99.90;;;;;;5073456;28;20049;-56
2022/04/13 10:01:36;;;;;;;10.50;6.40;;;21.40;99.90;;;;;;5072405;28;20106;-52
2022/04/13 10:04:07;;;;;;;9.73;6.30;;;21.30;99.90;;;;;;5073289;28;20075;-53
2022/04/13 10:06:35;;;;;;;12.07;6.35;;;21.10;99.90;;;;;;5072935;28;20048;-54
2022/04/13 10:09:08;;;;;;;10.20;5.40;;;21.00;99.90;;;;;;5073696;28;20056;-55
2022/04/13 10:11:35;;;;;;;9.70;5.15;;;21.10;99.90;;;;;;5072815;28;20103;-56
2022/04/13 10:14:02;;;;;;;8.80;4.80;;;21.20;99.90;;;;;;5072692;28;20498;-51
2022/04/13 10:16:35;;;;;;;10.85;4.57;;;21.20;99.90;;;;;;5055052;28;20478;-54
2022/04/13 10:19:05;;;;;;;10.07;3.97;;;21.10;99.90;;;;;;5072187;28;20127;-51
2022/04/13 10:21:41;;;;;;;7.10;4.20;;;21.20;99.90;;;;;;5073015;28;20406;-54
2022/04/13 10:24:29;;;;;;;7.45;4.28;;;21.20;99.40;;;;;;5071721;28;20049;-53
2022/04/13 10:27:05;;;;;;;7.25;3.55;;;21.20;99.60;;;;;;5072793;28;20125;-55
2022/04/13 10:29:35;;;;;;;8.50;3.58;;;21.20;98.80;;;;;;5072757;28;20061;-58
2022/04/13 10:32:10;;;;;;;8.25;3.33;;;21.30;99.20;;;;;;5072069;28;20224;-58
2022/04/13 10:34:40;;;;;;;6.47;4.05;;;21.20;98.30;;;;;;5072416;28;20044;-51
2022/04/13 10:37:08;;;;;;;7.07;4.03;;;21.20;99.00;;;;;;5072346;28;20516;-54
2022/04/13 10:39:34;;;;;;;7.72;3.92;;;21.20;98.80;;;;;;5070806;28;20490;-59
2022/04/13 10:42:02;;;;;;;8.10;3.92;;;21.30;98.80;;;;;;5071429;28;20055;-52
2022/04/13 10:44:34;;;;;;;8.32;4.22;;;21.40;99.00;;;;;;5072348;28;20114;-55
2022/04/13 10:47:05;;;;;;;7.88;4.63;;;21.50;98.80;;;;;;5072847;28;20413;-52
2022/04/13 10:49:55;;;;;;;8.15;4.75;;;21.60;98.30;;;;;;5055263;28;20070;-55
2022/04/13 10:52:47;;;;;;;9.05;4.00;;;21.60;98.60;;;;;;5072216;28;20162;-51
2022/04/13 10:55:14;;;;;;;8.48;4.78;;;21.50;98.50;;;;;;5071240;28;20055;-54
2022/04/13 10:57:46;;;;;;;9.23;4.35;;;21.40;98.80;;;;;;5071649;28;20402;-51
2022/04/13 11:00:14;;;;;;;7.97;4.30;;;21.30;98.80;;;;;;5072116;28;20454;-54
2022/04/13 11:02:48;;;;;;;10.45;3.95;;;21.40;99.00;;;;;;5054669;28;20062;-54
2022/04/13 11:05:14;;;;;;;7.00;3.92;;;21.50;98.70;;;;;;5072310;28;20048;-57
2022/04/13 11:07:41;;;;;;;6.82;3.47;;;21.60;98.50;;;;;;5072080;28;20048;-56
2022/04/13 11:10:16;;;;;;;9.10;3.90;;;21.60;97.90;;;;;;5072180;28;20055;-56
2022/04/13 11:12:42;;;;;;;7.65;3.97;;;21.60;98.30;;;;;;5069935;28;20059;-54
2022/04/13 11:15:08;;;;;;;7.95;3.30;;;21.70;98.20;;;;;;5071938;28;20045;-53
2022/04/13 11:17:41;;;;;;;7.57;3.70;;;21.80;98.40;;;;;;5070636;28;20040;-55
2022/04/13 11:20:26;;;;;;;7.90;3.60;;;21.80;97.60;;;;;;5072013;28;20041;-55
2022/04/13 11:23:15;;;;;;;7.10;3.67;;;21.80;97.50;;;;;;5071753;28;20437;-53
2022/04/13 11:25:50;;;;;;;10.02;3.80;;;21.60;97.40;;;;;;5071599;28;20462;-59
2022/04/13 11:28:27;;;;;;;7.90;3.88;;;21.40;97.20;;;;;;5070911;28;20203;-55
2022/04/13 11:31:09;;;;;;;8.15;3.85;;;21.20;97.80;;;;;;5053085;28;20060;-54
2022/04/13 11:33:56;;;;;;;6.68;3.53;;;21.10;98.30;;;;;;5071674;28;20453;-56
2022/04/13 11:36:24;;;;;;;12.70;4.68;;;21.00;97.80;;;;;;5071656;28;20046;-52
2022/04/13 11:38:52;;;;;;;8.00;4.10;;;20.90;98.50;;;;;;5071136;28;20044;-53
2022/04/13 11:41:19;;;;;;;9.77;4.53;;;20.90;98.40;;;;;;5071511;28;20048;-52
2022/04/13 11:43:45;;;;;;;11.02;4.90;;;20.80;99.30;;;;;;5071376;28;20069;-54
2022/04/13 11:46:38;;;;;;;7.43;4.60;;;20.80;99.40;;;;;;5071470;28;20052;-50
2022/04/13 11:49:09;;;;;;;12.00;5.72;;;20.70;99.90;;;;;;5071125;28;20049;-57
2022/04/13 11:51:35;;;;;;;9.25;4.65;;;20.50;99.90;;;;;;5070758;28;20048;-55
2022/04/13 11:54:10;;;;;;;10.32;4.90;;;20.40;99.90;;;;;;5071127;28;20049;-54
2022/04/13 11:56:37;;;;;;;9.73;4.30;;;20.30;99.90;;;;;;5070252;28;20054;-54
2022/04/13 11:59:05;;;;;;;10.73;4.85;;;20.10;99.90;;;;;;5071069;28;20223;-54
2022/04/13 12:01:33;;;;;;;9.45;4.25;;;20.00;99.90;;;;;;5071408;28;20040;-58
2022/04/13 12:04:02;;;;;;;7.90;4.07;;;20.00;99.90;;;;;;5071191;28;20119;-50
2022/04/13 12:06:28;;;;;;;11.02;3.42;;;20.00;99.90;;;;;;5071355;28;20408;-51
2022/04/13 12:08:59;;;;;;;7.13;2.67;;;19.90;99.90;;;;;;5071100;28;20086;-52
2022/04/13 12:11:37;;;;;;;7.75;3.20;;;19.80;99.90;;;;;;5071628;28;20050;-53
2022/04/13 12:14:03;;;;;;;7.50;2.92;;;19.60;99.90;;;;;;5070973;28;20055;-55
2022/04/13 12:16:33;;;;;;;11.75;3.85;;;19.60;99.90;;;;;;5071158;28;20045;-51
2022/04/13 12:19:09;;;;;;;10.63;4.07;;;19.60;99.90;;;;;;5070757;28;20071;-54
2022/04/13 12:21:40;;;;;;;10.95;4.03;;;19.60;99.90;;;;;;5069821;28;20056;-53
2022/04/13 12:24:07;;;;;;;10.93;4.03;;;19.60;99.90;;;;;;5072445;28;20630;-57
2022/04/13 12:26:35;;;;;;;9.55;3.65;;;19.60;99.90;;;;;;5075471;28;20055;-53
2022/04/13 12:29:10;;;;;;;7.80;3.40;;;19.50;99.90;;;;;;5074624;28;20074;-55
2022/04/13 12:31:44;;;;;;;12.05;4.38;;;19.60;99.90;;;;;;5075474;28;20060;-56
2022/04/13 12:34:14;;;;;;;9.00;4.35;;;19.50;99.90;;;;;;5074965;28;20052;-55
2022/04/13 12:36:40;;;;;;;11.10;5.15;;;19.60;99.90;;;;;;5075356;28;20452;-55
2022/04/13 12:39:09;;;;;;;10.82;4.60;;;19.50;99.90;;;;;;5073285;28;20136;-56
2022/04/13 12:41:35;;;;;;;8.40;4.13;;;19.50;99.90;;;;;;5074177;28;20210;-55
2022/04/13 12:44:01;;;;;;;10.93;4.30;;;19.40;99.90;;;;;;5056609;28;20135;-53
2022/04/13 12:46:30;;;;;;;11.27;4.70;;;19.50;99.90;;;;;;5073703;28;20049;-57
2022/04/13 12:49:02;;;;;;;11.25;4.70;;;19.40;99.90;;;;;;5073006;28;20052;-56
2022/04/13 12:51:38;;;;;;;12.38;5.40;;;19.30;99.90;;;;;;5057030;28;20092;-54